Time;durP1;ratioP1;P1;durP2;ratioP2;P2;SDS_P1;SDS_P2;PMS_P1;PMS_P2;Temp;Humidity;BMP_temperature;BMP_pressure;BME280_temperature;BME280_humidity;BME280_pressure;Samples;Min_cycle;Max_cycle;Signal;HPM_P1;HPM_P2
2022/07/03 00:00:18;;;;;;;4.47;3.08;;;;;;;22.53;50.73;100149.50;4362842;32;35001;-83
2022/07/03 00:02:46;;;;;;;4.72;2.72;;;;;;;22.51;51.05;100148.19;4336583;32;32607;-82
2022/07/03 00:05:14;;;;;;;5.72;2.60;;;;;;;22.84;50.28;100145.06;4356097;32;34395;-82
2022/07/03 00:07:42;;;;;;;4.05;2.75;;;;;;;22.51;50.56;100146.25;4347992;33;34065;-82
2022/07/03 00:10:10;;;;;;;4.55;3.08;;;;;;;22.28;51.29;100153.78;4347657;33;35144;-83
2022/07/03 00:12:37;;;;;;;3.62;2.67;;;;;;;22.80;50.24;100149.59;4348034;33;34876;-83
2022/07/03 00:15:05;;;;;;;3.78;2.65;;;;;;;22.79;50.29;100148.78;4347814;33;34578;-84
2022/07/03 00:17:33;;;;;;;3.95;2.90;;;;;;;22.84;50.04;100150.59;4347005;33;34753;-81
2022/07/03 00:20:00;;;;;;;4.95;3.25;;;;;;;22.75;50.34;100147.00;4360017;32;34339;-84
2022/07/03 00:22:30;;;;;;;5.30;3.17;;;;;;;22.92;50.08;100153.38;4362627;32;34765;-83
2022/07/03 00:25:06;;;;;;;4.93;3.17;;;;;;;22.46;51.12;100145.56;4362734;32;33575;-84
2022/07/03 00:27:34;;;;;;;4.37;3.10;;;;;;;22.40;51.25;100142.13;4349462;32;34645;-86
2022/07/03 00:30:03;;;;;;;5.10;3.05;;;;;;;22.44;51.34;100139.53;4349423;32;34116;-84
2022/07/03 00:32:30;;;;;;;5.22;3.20;;;;;;;22.52;51.32;100141.53;4344341;33;33995;-86
2022/07/03 00:34:58;;;;;;;4.97;3.10;;;;;;;22.58;51.21;100136.69;4358545;32;34412;-84
2022/07/03 00:37:26;;;;;;;5.20;3.33;;;;;;;22.57;50.93;100133.09;4347536;33;34117;-83
2022/07/03 00:39:53;;;;;;;5.43;3.40;;;;;;;22.59;51.30;100135.53;4347456;32;34271;-83
2022/07/03 00:42:21;;;;;;;4.43;2.85;;;;;;;22.61;50.87;100147.09;4346480;33;34024;-86
2022/07/03 00:44:51;;;;;;;4.78;2.92;;;;;;;22.49;51.62;100143.00;4347147;32;33844;-86
2022/07/03 00:47:20;;;;;;;4.55;3.15;;;;;;;22.55;51.48;100143.66;4347111;33;34020;-84
2022/07/03 00:49:51;;;;;;;5.25;3.22;;;;;;;22.19;52.38;100144.59;4358280;32;33975;-84
2022/07/03 00:52:20;;;;;;;5.07;3.22;;;;;;;22.23;52.26;100140.09;4362114;32;34214;-84
2022/07/03 00:54:55;;;;;;;4.93;2.97;;;;;;;21.89;53.04;100137.91;4348996;32;34371;-84
2022/07/03 00:57:25;;;;;;;3.58;2.75;;;;;;;21.68;53.53;100135.69;4348624;32;34577;-86
2022/07/03 00:59:53;;;;;;;4.57;3.03;;;;;;;22.17;52.84;100135.00;4348479;32;34339;-78
2022/07/03 01:02:39;;;;;;;6.07;3.17;;;;;;;22.18;52.34;100131.09;4355352;32;34246;-79
2022/07/03 01:05:07;;;;;;;4.85;2.83;;;;;;;22.23;52.19;100131.81;4347658;33;34570;-79
2022/07/03 01:07:41;;;;;;;4.47;3.00;;;;;;;22.31;52.05;100127.44;4347598;33;33921;-78
2022/07/03 01:10:19;;;;;;;4.55;3.10;;;;;;;22.09;52.64;100128.28;4358197;32;34179;-78
2022/07/03 01:12:54;;;;;;;4.87;3.15;;;;;;;21.93;53.48;100127.88;4334021;33;34302;-78
2022/07/03 01:16:11;;;;;;;5.07;3.17;;;;;;;21.99;53.36;100125.81;4357535;32;34427;-78
2022/07/03 01:18:45;;;;;;;5.78;3.58;;;;;;;22.09;52.91;100123.59;4332045;32;34017;-78
2022/07/03 01:21:34;;;;;;;5.53;3.25;;;;;;;22.04;53.06;100123.72;4361999;32;34245;-84
2022/07/03 01:24:20;;;;;;;4.50;3.25;;;;;;;22.19;52.81;100129.97;4357441;32;34313;-78
2022/07/03 01:26:47;;;;;;;4.35;3.12;;;;;;;21.62;54.17;100125.88;4346709;33;34495;-78
2022/07/03 01:29:25;;;;;;;4.90;3.15;;;;;;;21.55;54.40;100121.91;4347020;32;34633;-78
2022/07/03 01:31:54;;;;;;;4.50;3.00;;;;;;;21.85;53.76;100121.16;4359817;32;33982;-83
2022/07/03 01:34:25;;;;;;;5.70;3.33;;;;;;;21.60;54.38;100110.78;4348982;33;35123;-78
2022/07/03 01:36:54;;;;;;;4.47;3.00;;;;;;;21.92;53.64;100118.78;4335740;33;34559;-78
2022/07/03 01:39:23;;;;;;;5.40;3.50;;;;;;;21.97;53.42;100117.03;4338868;32;34035;-78
2022/07/03 01:42:12;;;;;;;5.68;3.70;;;;;;;21.47;54.71;100115.22;4352817;32;34379;-78
2022/07/03 01:44:40;;;;;;;4.22;2.62;;;;;;;21.56;54.61;100107.00;4363230;32;34320;-77
2022/07/03 01:47:08;;;;;;;4.40;3.05;;;;;;;21.64;54.34;100114.50;4351949;32;32947;-78
2022/07/03 01:49:37;;;;;;;5.78;3.50;;;;;;;21.65;54.26;100103.16;4348952;33;34688;-79
2022/07/03 01:52:05;;;;;;;5.80;3.30;;;;;;;21.71;54.22;100112.94;4360086;32;34277;-78
2022/07/03 01:54:54;;;;;;;4.65;3.25;;;;;;;21.77;54.07;100110.88;4357517;32;34951;-79
2022/07/03 01:57:24;;;;;;;4.57;3.37;;;;;;;21.55;54.70;100099.84;4359816;32;34520;-78
2022/07/03 01:59:52;;;;;;;4.03;3.22;;;;;;;21.33;55.33;100106.94;4359797;32;34013;-80
2022/07/03 02:02:21;;;;;;;4.93;3.40;;;;;;;21.25;55.65;100100.25;4358942;32;34289;-78
2022/07/03 02:05:02;;;;;;;5.32;3.60;;;;;;;20.90;56.59;100108.16;4348610;33;34054;-78
2022/07/03 02:08:08;;;;;;;4.55;3.12;;;;;;;21.45;55.27;100107.25;4359874;32;34657;-86
2022/07/03 02:10:47;;;;;;;4.97;3.20;;;;;;;21.50;54.97;100109.06;4346560;32;34803;-78
2022/07/03 02:13:22;;;;;;;5.87;3.30;;;;;;;21.33;55.55;100114.41;4335210;33;34211;-78
2022/07/03 02:15:51;;;;;;;4.95;3.05;;;;;;;21.15;56.38;100117.03;4359236;32;34209;-78
2022/07/03 02:18:31;;;;;;;5.12;3.28;;;;;;;21.19;56.17;100112.53;4348770;33;33471;-86
2022/07/03 02:21:08;;;;;;;4.72;3.12;;;;;;;21.42;55.71;100115.31;4359899;32;33733;-79
2022/07/03 02:23:42;;;;;;;5.32;3.25;;;;;;;21.40;55.42;100115.59;4348673;33;33937;-78
2022/07/03 02:26:10;;;;;;;;;;;;;;;21.25;56.11;100113.19;4360163;32;34253;-87
2022/07/03 02:29:01;;;;;;;5.10;3.45;;;;;;;21.42;55.63;100112.56;4359879;32;34502;-78
2022/07/03 02:31:39;;;;;;;5.85;3.75;;;;;;;21.20;56.37;100105.06;4348033;32;33786;-86
2022/07/03 02:34:07;;;;;;;4.82;3.08;;;;;;;21.03;56.73;100109.25;4347156;33;35029;-78
2022/07/03 02:36:36;;;;;;;4.97;3.35;;;;;;;20.98;56.86;100114.91;4335308;33;33869;-78
2022/07/03 02:39:04;;;;;;;5.22;3.40;;;;;;;20.83;57.39;100118.00;4335369;33;33332;-78
2022/07/03 02:41:46;;;;;;;5.43;3.60;;;;;;;20.96;57.11;100108.88;4359651;32;34980;-78
2022/07/03 02:44:23;;;;;;;4.85;3.00;;;;;;;20.75;57.67;100116.78;4337694;32;34189;-89
2022/07/03 02:47:19;;;;;;;4.47;3.17;;;;;;;20.94;57.29;100118.59;4334932;33;33963;-78
2022/07/03 02:49:56;;;;;;;4.93;3.33;;;;;;;20.91;57.31;100131.06;4348593;33;33776;-78
2022/07/03 02:52:30;;;;;;;5.10;3.25;;;;;;;20.99;57.10;100137.78;4359525;32;33725;-83
2022/07/03 02:55:05;;;;;;;5.18;3.42;;;;;;;21.05;56.93;100136.56;4348451;33;35185;-78
2022/07/03 02:57:39;;;;;;;6.57;3.55;;;;;;;20.56;58.25;100124.31;4348452;33;34216;-77
2022/07/03 03:00:11;;;;;;;4.93;3.22;;;;;;;20.51;58.62;100129.94;4348054;32;34521;-85
2022/07/03 03:02:55;;;;;;;5.00;3.33;;;;;;;20.76;58.03;100125.88;4348218;33;34772;-77
2022/07/03 03:05:29;;;;;;;4.97;3.35;;;;;;;20.83;58.00;100115.25;4348430;33;33992;-78
2022/07/03 03:08:16;;;;;;;5.53;3.22;;;;;;;20.87;57.69;100108.81;4348087;33;34106;-78
2022/07/03 03:10:44;;;;;;;4.93;3.17;;;;;;;20.97;57.31;100112.44;4348586;33;33826;-78
2022/07/03 03:13:16;;;;;;;5.28;3.55;;;;;;;21.03;56.80;100123.06;4348248;33;34113;-78
2022/07/03 03:16:08;;;;;;;5.43;3.40;;;;;;;20.89;57.63;100131.38;4347896;33;35129;-84
2022/07/03 03:18:38;;;;;;;6.87;3.47;;;;;;;20.55;59.05;100133.72;4359273;32;34291;-85
2022/07/03 03:21:09;;;;;;;5.78;3.45;;;;;;;20.67;59.07;100123.84;4348650;32;33705;-83
2022/07/03 03:23:48;;;;;;;5.68;3.42;;;;;;;20.61;58.98;100124.25;4348121;32;34085;-77
2022/07/03 03:26:25;;;;;;;4.70;3.15;;;;;;;20.91;58.31;100122.78;4335108;33;35097;-77
2022/07/03 03:28:54;;;;;;;5.18;3.70;;;;;;;21.24;57.24;100117.91;4348110;33;35000;-78
2022/07/03 03:31:22;;;;;;;6.22;3.33;;;;;;;21.26;57.29;100114.84;4359126;32;33787;-78
2022/07/03 03:33:50;;;;;;;5.35;3.42;;;;;;;21.35;57.13;100112.16;4348239;32;34747;-79
2022/07/03 03:36:19;;;;;;;6.18;3.87;;;;;;;21.58;56.48;100110.28;4347909;33;33958;-80
2022/07/03 03:38:48;;;;;;;6.30;3.80;;;;;;;21.81;55.78;100105.53;4348411;33;33731;-76
2022/07/03 03:41:16;;;;;;;6.20;3.70;;;;;;;21.98;55.20;100107.59;4348197;33;34713;-82
2022/07/03 03:43:44;;;;;;;4.00;2.92;;;;;;;22.01;55.77;100107.78;4349935;32;34719;-81
2022/07/03 03:46:14;;;;;;;5.18;3.30;;;;;;;22.03;55.59;100110.19;4363135;32;34228;-83
2022/07/03 03:48:42;;;;;;;5.75;3.78;;;;;;;22.28;55.20;100095.72;4362737;32;33990;-83
2022/07/03 03:51:10;;;;;;;4.60;3.12;;;;;;;22.31;54.92;100097.03;4357699;32;33729;-81
2022/07/03 03:53:37;;;;;;;5.75;3.72;;;;;;;22.01;56.20;100101.41;4347016;33;34769;-83
2022/07/03 03:56:07;;;;;;;4.78;3.33;;;;;;;22.51;55.17;100107.53;4359008;32;33004;-83
2022/07/03 03:58:37;;;;;;;4.75;3.50;;;;;;;22.88;53.66;100110.06;4357669;32;34907;-83
2022/07/03 04:01:06;;;;;;;4.68;3.25;;;;;;;23.18;52.40;100127.72;4333696;33;32887;-81
2022/07/03 04:03:35;;;;;;;4.82;3.00;;;;;;;23.32;52.21;100131.16;4332188;33;34819;-79
2022/07/03 04:06:03;;;;;;;6.40;3.47;;;;;;;23.21;52.62;100121.53;4347288;33;34128;-79
2022/07/03 04:08:31;;;;;;;5.70;3.28;;;;;;;23.12;52.35;100120.72;4347821;33;33916;-82
2022/07/03 04:10:59;;;;;;;4.97;3.30;;;;;;;23.46;51.23;100128.22;4347187;33;33721;-78
2022/07/03 04:13:27;;;;;;;5.43;3.37;;;;;;;23.83;50.03;100134.25;4347711;32;33564;-77
2022/07/03 04:15:55;;;;;;;4.55;3.22;;;;;;;23.88;49.91;100128.53;4334525;33;34237;-76
2022/07/03 04:18:23;;;;;;;5.12;3.20;;;;;;;24.24;48.66;100138.41;4347771;33;34855;-80
2022/07/03 04:20:55;;;;;;;5.53;3.40;;;;;;;24.15;49.01;100137.62;4347860;33;34589;-79
2022/07/03 04:23:23;;;;;;;6.57;3.17;;;;;;;24.31;48.60;100141.47;4334610;33;34047;-78
2022/07/03 04:25:50;;;;;;;3.67;2.80;;;;;;;24.45;48.42;100126.56;4346318;33;34377;-81
2022/07/03 04:28:18;;;;;;;4.93;3.47;;;;;;;24.39;49.15;100122.37;4358561;32;34159;-81
2022/07/03 04:30:48;;;;;;;5.45;2.92;;;;;;;24.57;48.58;100118.37;4347965;33;33537;-79
2022/07/03 04:33:15;;;;;;;6.07;3.60;;;;;;;24.49;49.14;100122.00;4347607;33;34720;-82
2022/07/03 04:35:43;;;;;;;5.78;3.65;;;;;;;24.40;50.60;100121.22;4348055;32;34442;-80
2022/07/03 04:38:11;;;;;;;4.93;3.17;;;;;;;24.56;49.32;100117.56;4347614;33;34334;-79
2022/07/03 04:40:38;;;;;;;4.65;3.33;;;;;;;24.92;48.51;100115.41;4358819;32;33750;-77
2022/07/03 04:43:05;;;;;;;4.70;3.45;;;;;;;24.88;49.28;100112.50;4348954;32;34901;-80
2022/07/03 04:45:33;;;;;;;4.78;3.30;;;;;;;24.55;50.41;100098.47;4362522;32;34230;-81
2022/07/03 04:48:01;;;;;;;5.30;3.30;;;;;;;24.60;50.62;100109.41;4354704;32;35095;-76
2022/07/03 04:50:28;;;;;;;4.30;2.95;;;;;;;25.06;49.24;100107.66;4362376;32;33665;-76
2022/07/03 04:52:56;;;;;;;4.25;2.97;;;;;;;25.06;49.60;100113.19;4373447;32;34751;-75
2022/07/03 04:55:24;;;;;;;4.90;2.87;;;;;;;24.76;49.99;100112.41;4361878;32;34979;-77
2022/07/03 04:57:51;;;;;;;5.47;3.42;;;;;;;25.64;48.43;100107.00;4355923;32;34786;-79
2022/07/03 05:00:19;;;;;;;5.05;3.15;;;;;;;26.02;47.31;100101.25;4361574;32;34866;-73
2022/07/03 05:02:46;;;;;;;4.20;2.85;;;;;;;26.26;46.47;100100.47;4361490;32;33973;-71
2022/07/03 05:05:14;;;;;;;4.00;2.92;;;;;;;26.47;46.42;100097.59;4357088;32;33889;-72
2022/07/03 05:07:42;;;;;;;4.65;3.05;;;;;;;26.10;48.07;100097.56;4348725;33;34823;-72
2022/07/03 05:10:09;;;;;;;4.97;3.33;;;;;;;26.16;47.50;100096.19;4354862;32;34108;-73
2022/07/03 05:12:36;;;;;;;5.03;3.15;;;;;;;26.03;47.47;100097.34;4354904;32;34797;-69
2022/07/03 05:15:08;;;;;;;5.12;3.05;;;;;;;26.38;46.92;100089.38;4363379;32;34302;-71
2022/07/03 05:17:36;;;;;;;5.40;2.80;;;;;;;26.62;47.05;100090.56;4354487;32;34162;-73
2022/07/03 05:22:54;;;;;;;4.93;2.80;;;;;;;26.26;46.71;100083.78;4348295;33;33873;-74
2022/07/03 05:25:22;;;;;;;4.20;2.70;;;;;;;26.39;46.45;100082.66;4358291;32;34116;-75
2022/07/03 05:27:50;;;;;;;4.37;3.05;;;;;;;26.60;47.04;100084.53;4348577;33;34957;-72
2022/07/03 05:30:18;;;;;;;4.60;3.10;;;;;;;26.60;45.37;100085.34;4335385;33;33607;-74
2022/07/03 05:32:45;;;;;;;4.90;3.15;;;;;;;25.77;47.38;100087.28;4335465;33;34014;-74
2022/07/03 05:35:13;;;;;;;5.28;3.03;;;;;;;26.42;48.66;100086.72;4349103;33;34352;-74
2022/07/03 05:37:40;;;;;;;4.53;2.75;;;;;;;26.64;46.33;100082.69;4355952;32;34245;-72
2022/07/03 05:40:08;;;;;;;4.95;3.33;;;;;;;26.69;46.64;100096.34;4350255;32;34355;-74
2022/07/03 05:42:36;;;;;;;4.43;3.03;;;;;;;26.86;45.65;100086.94;4350065;32;32872;-78
2022/07/03 05:45:05;;;;;;;5.82;3.53;;;;;;;27.08;45.63;100090.38;4363493;32;34974;-76
2022/07/03 05:47:32;;;;;;;4.80;3.22;;;;;;;26.90;45.79;100087.06;4363155;32;34042;-72
2022/07/03 05:50:00;;;;;;;5.00;3.22;;;;;;;26.71;47.09;100091.25;4361406;32;33447;-77
2022/07/03 05:52:28;;;;;;;5.97;3.22;;;;;;;26.39;49.33;100092.97;4363743;32;33899;-77
2022/07/03 05:54:55;;;;;;;4.10;3.00;;;;;;;27.07;46.22;100091.56;4363135;32;34983;-74
2022/07/03 05:57:23;;;;;;;3.92;2.80;;;;;;;27.10;45.43;100096.41;4363104;32;34175;-79
2022/07/03 05:59:50;;;;;;;4.70;2.90;;;;;;;27.32;45.90;100097.87;4363607;32;33705;-72
2022/07/03 06:02:18;;;;;;;5.20;3.30;;;;;;;27.59;44.90;100093.47;4360823;32;34078;-73
2022/07/03 06:04:46;;;;;;;4.82;2.92;;;;;;;27.81;43.97;100095.69;4363198;32;34199;-79
2022/07/03 06:07:13;;;;;;;4.50;2.70;;;;;;;27.46;46.52;100098.28;4374785;32;34869;-77
2022/07/03 06:09:41;;;;;;;4.68;2.90;;;;;;;27.24;46.55;100108.00;4363327;32;33792;-74
2022/07/03 06:12:09;;;;;;;5.25;3.12;;;;;;;27.77;45.04;100099.53;4362994;32;33753;-77
2022/07/03 06:14:36;;;;;;;4.85;2.80;;;;;;;28.37;43.86;100108.72;4362997;32;35304;-77
2022/07/03 06:17:04;;;;;;;4.25;3.03;;;;;;;29.23;41.50;100107.19;4347742;32;34047;-76
2022/07/03 06:19:32;;;;;;;4.28;2.58;;;;;;;28.39;43.73;100111.97;4347157;33;34664;-77
2022/07/03 06:21:59;;;;;;;4.80;2.90;;;;;;;28.90;41.68;100121.56;4348488;32;34013;-77
2022/07/03 06:24:27;;;;;;;3.95;2.58;;;;;;;29.10;40.91;100120.47;4362498;32;34293;-78
2022/07/03 06:26:54;;;;;;;3.80;2.70;;;;;;;29.46;40.97;100126.84;4361882;32;34943;-72
2022/07/03 06:29:22;;;;;;;4.30;2.97;;;;;;;29.88;39.59;100114.91;4348254;32;33644;-76
2022/07/03 06:31:49;;;;;;;3.83;2.78;;;;;;;30.26;39.14;100116.78;4361812;32;34188;-73
2022/07/03 06:34:17;;;;;;;4.55;2.87;;;;;;;29.70;41.58;100119.31;4361990;32;35038;-75
2022/07/03 06:36:45;;;;;;;3.80;2.70;;;;;;;29.96;40.11;100111.06;4362416;32;33888;-77
2022/07/03 06:39:12;;;;;;;3.62;2.47;;;;;;;30.40;39.13;100107.84;4362207;32;33699;-76
2022/07/03 06:41:40;;;;;;;4.43;2.62;;;;;;;30.99;37.65;100099.94;4361963;32;33919;-76
2022/07/03 06:44:07;;;;;;;4.53;2.95;;;;;;;30.81;37.72;100101.69;4362029;32;34242;-72
2022/07/03 06:46:35;;;;;;;3.83;2.72;;;;;;;30.32;40.27;100094.09;4361366;32;34911;-78
2022/07/03 06:49:02;;;;;;;4.37;2.42;;;;;;;30.90;36.54;100102.22;4362156;32;33623;-73
2022/07/03 06:51:30;;;;;;;4.07;2.75;;;;;;;28.72;40.95;100104.41;4348601;32;33714;-76
2022/07/03 06:53:57;;;;;;;4.93;3.00;;;;;;;29.28;40.95;100100.47;4362131;32;34243;-72
2022/07/03 06:56:25;;;;;;;4.80;2.75;;;;;;;29.73;40.52;100099.03;4348124;32;34779;-72
2022/07/03 06:58:57;;;;;;;4.03;2.80;;;;;;;30.41;38.29;100098.28;4348692;32;34601;-74
2022/07/03 07:01:24;;;;;;;3.65;2.70;;;;;;;31.03;36.55;100100.81;4361485;32;33548;-78
2022/07/03 07:03:52;;;;;;;3.75;2.60;;;;;;;31.21;36.05;100089.88;4362052;32;34181;-66
2022/07/03 07:06:19;;;;;;;5.37;2.78;;;;;;;30.69;36.53;100088.69;4362001;32;34711;-66
2022/07/03 07:08:47;;;;;;;4.80;3.03;;;;;;;31.07;36.56;100086.84;4361754;32;33751;-71
2022/07/03 07:11:15;;;;;;;4.10;3.15;;;;;;;30.15;38.12;100084.19;4354879;32;34073;-79
2022/07/03 07:13:42;;;;;;;3.95;2.87;;;;;;;29.39;40.10;100093.12;4346891;33;34230;-80
2022/07/03 07:16:10;;;;;;;4.20;3.08;;;;;;;29.64;39.54;100088.03;4346271;33;34837;-74
2022/07/03 07:18:40;;;;;;;3.90;2.85;;;;;;;30.12;39.36;100090.53;4346754;33;34482;-79
2022/07/03 07:21:08;;;;;;;4.37;2.85;;;;;;;31.21;36.48;100089.03;4346952;33;33682;-81
2022/07/03 07:23:36;;;;;;;3.70;2.80;;;;;;;31.82;34.88;100090.59;4347013;33;35099;-79
2022/07/03 07:26:04;;;;;;;4.03;2.55;;;;;;;32.83;33.51;100091.47;4346878;33;33994;-81
2022/07/03 07:28:33;;;;;;;4.90;3.22;;;;;;;33.02;33.68;100082.72;4345311;33;35029;-78
2022/07/03 07:31:02;;;;;;;4.40;2.60;;;;;;;32.82;32.35;100087.03;4345846;33;34881;-74
2022/07/03 07:33:29;;;;;;;3.80;2.58;;;;;;;33.10;33.54;100090.03;4346390;33;35153;-80
2022/07/03 07:35:57;;;;;;;3.65;2.62;;;;;;;33.12;32.78;100094.47;4346391;33;34332;-73
2022/07/03 07:38:24;;;;;;;5.35;2.67;;;;;;;32.72;33.02;100094.19;4359289;32;33253;-80
2022/07/03 07:40:52;;;;;;;3.95;2.47;;;;;;;31.75;36.15;100089.69;4347779;33;34980;-79
2022/07/03 07:43:19;;;;;;;3.78;2.53;;;;;;;30.72;38.54;100087.16;4348067;33;34010;-86
2022/07/03 07:45:48;;;;;;;3.90;2.67;;;;;;;30.78;37.61;100085.63;4347739;33;35318;-78
2022/07/03 07:48:17;;;;;;;8.05;3.15;;;;;;;31.17;36.13;100085.41;4347930;33;34438;-69
2022/07/03 07:50:44;;;;;;;4.35;2.40;;;;;;;31.59;35.63;100095.53;4348011;33;34032;-83
2022/07/03 07:53:12;;;;;;;4.25;2.60;;;;;;;30.98;38.23;100094.75;4347796;33;35097;-81
2022/07/03 07:55:39;;;;;;;4.55;3.10;;;;;;;29.94;37.62;100093.81;4348190;33;34484;-81
2022/07/03 07:58:08;;;;;;;5.18;3.00;;;;;;;30.65;38.52;100097.06;4347842;33;33822;-67
2022/07/03 08:00:36;;;;;;;4.15;2.80;;;;;;;30.43;40.90;100092.28;4347162;33;34690;-71
2022/07/03 08:05:49;;;;;;;3.90;2.42;;;;;;;30.68;37.66;100101.09;4355317;32;35063;-83
2022/07/03 08:08:17;;;;;;;4.93;2.83;;;;;;;30.71;37.39;100103.12;4362581;32;33456;-80
2022/07/03 08:10:50;;;;;;;4.00;2.80;;;;;;;30.46;37.36;100097.94;4362683;32;34928;-83
2022/07/03 08:13:19;;;;;;;3.60;2.58;;;;;;;29.62;39.65;100096.78;4362340;32;34827;-82
2022/07/03 08:15:49;;;;;;;3.97;2.95;;;;;;;30.34;37.97;100095.34;4362202;32;33887;-73
2022/07/03 08:18:16;;;;;;;4.40;2.83;;;;;;;30.84;37.31;100098.94;4362017;32;33693;-74
2022/07/03 08:20:44;;;;;;;4.00;2.85;;;;;;;30.89;37.29;100097.00;4362460;32;34014;-78
2022/07/03 08:23:11;;;;;;;3.58;2.60;;;;;;;31.19;36.81;100097.84;4360762;32;35072;-72
2022/07/03 08:25:39;;;;;;;4.80;2.90;;;;;;;31.09;36.88;100103.31;4362495;32;34294;-74
2022/07/03 08:28:06;;;;;;;5.15;2.78;;;;;;;31.26;36.65;100099.94;4361730;32;33448;-76
2022/07/03 08:30:34;;;;;;;4.93;3.40;;;;;;;31.39;36.76;100097.69;4362246;32;34406;-75
2022/07/03 08:33:01;;;;;;;4.53;3.00;;;;;;;31.12;36.66;100091.31;4349217;32;35005;-74
2022/07/03 08:35:29;;;;;;;4.18;2.83;;;;;;;31.28;36.18;100101.16;4362611;32;34045;-72
2022/07/03 08:37:57;;;;;;;5.87;3.12;;;;;;;31.39;36.49;100098.47;4359777;32;33338;-72
2022/07/03 08:40:24;;;;;;;4.40;3.10;;;;;;;30.95;35.82;100098.28;4362012;32;34060;-77
2022/07/03 08:42:54;;;;;;;3.83;2.83;;;;;;;30.61;38.26;100092.59;4362230;32;34651;-71
2022/07/03 08:45:23;;;;;;;4.40;2.97;;;;;;;30.90;38.41;100091.03;4362037;32;34330;-71
2022/07/03 08:47:53;;;;;;;4.57;2.80;;;;;;;30.40;37.83;100090.25;4361942;32;34460;-72
2022/07/03 08:50:22;;;;;;;5.37;2.80;;;;;;;30.01;37.65;100095.94;4362581;32;33940;-72
2022/07/03 08:52:50;;;;;;;4.43;2.97;;;;;;;30.20;38.56;100089.50;4362075;32;33918;-71
2022/07/03 08:55:18;;;;;;;3.92;2.90;;;;;;;29.70;38.57;100085.75;4362143;32;34252;-70
2022/07/03 08:57:48;;;;;;;4.28;2.95;;;;;;;29.96;38.31;100090.66;4362277;32;33975;-72
2022/07/03 09:00:17;;;;;;;3.22;2.45;;;;;;;29.78;39.73;100090.31;4362069;32;33999;-73
2022/07/03 09:02:46;;;;;;;3.90;2.85;;;;;;;29.61;39.40;100084.00;4361902;32;35147;-80
2022/07/03 09:05:15;;;;;;;4.15;2.75;;;;;;;30.24;37.42;100082.75;4359254;32;34967;-75
2022/07/03 09:07:45;;;;;;;4.10;2.67;;;;;;;30.57;36.79;100083.31;4362013;32;33943;-79
2022/07/03 09:10:15;;;;;;;4.50;2.97;;;;;;;30.86;36.48;100081.75;4360091;32;34458;-81
2022/07/03 09:12:47;;;;;;;4.62;2.70;;;;;;;30.54;35.97;100076.47;4361986;32;33852;-81
2022/07/03 09:15:15;;;;;;;3.28;2.35;;;;;;;30.98;36.62;100069.53;4361193;32;34434;-79
2022/07/03 09:17:57;;;;;;;4.03;2.85;;;;;;;31.16;35.83;100070.56;4361773;32;34364;-80
2022/07/03 09:20:30;;;;;;;4.57;2.85;;;;;;;30.80;36.81;100074.84;4361792;32;34896;-80
2022/07/03 09:23:19;;;;;;;3.30;2.15;;;;;;;30.99;35.67;100069.12;4361848;32;34026;-83
2022/07/03 09:25:57;;;;;;;3.75;2.53;;;;;;;31.35;34.08;100066.00;4361024;32;34802;-78
2022/07/03 09:28:53;;;;;;;5.35;2.12;;;;;;;30.88;35.53;100064.59;4359898;32;33796;-71
2022/07/03 09:31:25;;;;;;;3.05;2.20;;;;;;;30.91;34.59;100064.63;4332173;33;34097;-67
2022/07/03 09:33:58;;;;;;;3.50;2.25;;;;;;;30.74;37.07;100057.56;4332063;33;35119;-76
2022/07/03 09:36:46;;;;;;;3.70;2.42;;;;;;;30.40;35.19;100048.25;4331930;33;34310;-73
2022/07/03 09:39:19;;;;;;;3.08;2.00;;;;;;;30.27;34.87;100042.81;4332119;33;33768;-78
2022/07/03 09:41:54;;;;;;;2.90;2.27;;;;;;;29.43;35.87;100046.50;4331892;33;34985;-73
2022/07/03 09:44:46;;;;;;;3.53;2.58;;;;;;;30.09;34.97;100035.31;4331634;33;35043;-79
2022/07/03 09:47:20;;;;;;;3.78;2.40;;;;;;;29.52;37.13;100040.66;4331627;33;33830;-77
2022/07/03 09:49:56;;;;;;;3.62;2.42;;;;;;;29.87;35.94;100034.97;4332030;33;33715;-75
2022/07/03 09:52:38;;;;;;;3.35;2.15;;;;;;;30.29;34.92;100025.69;4334038;33;33732;-73
2022/07/03 09:55:06;;;;;;;3.60;2.58;;;;;;;29.88;35.96;100036.56;4334113;33;35171;-79
2022/07/03 09:57:33;;;;;;;3.45;2.58;;;;;;;30.56;36.29;100032.09;4333672;33;34026;-79
2022/07/03 10:00:11;;;;;;;5.20;2.75;;;;;;;30.62;35.53;100030.56;4333741;33;34536;-76
2022/07/03 10:03:03;;;;;;;3.47;2.42;;;;;;;31.05;34.43;100033.19;4333675;33;34591;-76
2022/07/03 10:05:39;;;;;;;3.55;2.50;;;;;;;31.02;34.19;100031.16;4344693;33;35244;-68
2022/07/03 10:08:12;;;;;;;3.53;2.40;;;;;;;31.51;33.26;100024.53;4341262;33;34849;-66
2022/07/03 10:10:42;;;;;;;2.70;2.20;;;;;;;30.79;35.07;100020.81;4347364;33;34997;-71
2022/07/03 10:13:10;;;;;;;3.40;2.40;;;;;;;31.48;34.71;100019.69;4336206;32;34593;-74
2022/07/03 10:15:39;;;;;;;3.67;2.20;;;;;;;31.56;33.61;100027.00;4332590;33;35121;-76
2022/07/03 10:18:11;;;;;;;3.10;2.22;;;;;;;31.61;33.02;100021.03;4332636;33;34879;-67
2022/07/03 10:20:42;;;;;;;3.22;2.30;;;;;;;31.95;32.21;100017.34;4332469;33;33712;-69
2022/07/03 10:23:10;;;;;;;2.67;1.85;;;;;;;32.14;33.70;100007.91;4332645;33;33784;-69
2022/07/03 10:25:47;;;;;;;4.47;2.62;;;;;;;32.17;32.17;100016.34;4332639;33;33721;-78
2022/07/03 10:28:16;;;;;;;2.45;1.95;;;;;;;31.70;32.35;100012.31;4332055;33;34065;-75
2022/07/03 10:30:46;;;;;;;2.80;2.08;;;;;;;31.46;32.49;100013.66;4332557;33;33623;-77
2022/07/03 10:33:13;;;;;;;3.12;2.05;;;;;;;29.79;32.81;100003.25;4332387;33;33543;-77
2022/07/03 10:35:52;;;;;;;2.87;1.90;;;;;;;30.45;33.67;100001.16;4332617;33;35025;-75
2022/07/03 10:38:42;;;;;;;2.97;2.20;;;;;;;31.05;33.34;99999.56;4332506;33;33981;-74
2022/07/03 10:46:48;;;;;;;2.55;1.85;;;;;;;30.92;32.50;99993.41;4331808;33;34198;-77
2022/07/03 10:49:20;;;;;;;3.05;1.98;;;;;;;31.42;33.09;99993.16;4332440;33;34209;-68
2022/07/03 10:51:52;;;;;;;3.55;2.20;;;;;;;31.19;32.45;99988.53;4332225;33;33861;-70
2022/07/03 10:54:29;;;;;;;2.60;1.80;;;;;;;30.83;32.11;99982.44;4332620;33;34530;-69
2022/07/03 10:56:57;;;;;;;5.40;2.17;;;;;;;31.62;33.19;99990.97;4332117;33;34196;-78
2022/07/03 10:59:39;;;;;;;2.53;1.80;;;;;;;32.00;32.51;99991.75;4331978;33;34359;-70
2022/07/03 11:02:22;;;;;;;4.55;1.65;;;;;;;32.42;31.49;99984.81;4331507;33;33725;-70
2022/07/03 11:05:01;;;;;;;2.58;1.60;;;;;;;32.60;30.73;99987.78;4332706;33;34706;-71
2022/07/03 11:07:54;;;;;;;2.67;1.70;;;;;;;32.98;30.15;99988.34;4332471;33;34304;-76
2022/07/03 11:10:22;;;;;;;2.67;1.98;;;;;;;32.73;30.93;99979.81;4332363;33;34498;-69
2022/07/03 11:12:56;;;;;;;2.85;1.92;;;;;;;32.64;30.59;99986.59;4332133;33;33440;-68
2022/07/03 11:15:36;;;;;;;1.90;1.40;;;;;;;32.96;30.40;99980.34;4332360;33;35249;-70
2022/07/03 11:18:35;;;;;;;2.10;1.73;;;;;;;32.70;30.63;99978.63;4332332;33;34320;-70
2022/07/03 11:21:11;;;;;;;2.10;1.80;;;;;;;33.41;28.91;99982.88;4332379;33;34858;-69
2022/07/03 11:24:00;;;;;;;3.28;1.90;;;;;;;33.10;31.07;99979.59;4332263;33;33688;-69
2022/07/03 11:26:27;;;;;;;2.37;1.60;;;;;;;33.13;31.10;99978.78;4332126;33;34633;-79
2022/07/03 11:28:55;;;;;;;2.12;1.70;;;;;;;33.48;30.40;99977.28;4331601;33;35081;-78
2022/07/03 11:31:23;;;;;;;2.80;1.87;;;;;;;33.78;28.94;99965.69;4332604;33;34353;-69
2022/07/03 11:33:50;;;;;;;2.87;1.75;;;;;;;33.87;28.38;99965.28;4345424;33;33978;-70
2022/07/03 11:36:20;;;;;;;2.33;1.70;;;;;;;33.97;29.73;99967.28;4346683;33;33604;-70
2022/07/03 11:39:09;;;;;;;2.70;1.80;;;;;;;33.42;30.48;99962.00;4346144;33;35156;-78
2022/07/03 11:41:36;;;;;;;5.12;2.35;;;;;;;33.98;28.62;99945.59;4346169;33;34068;-89
2022/07/03 11:44:08;;;;;;;2.72;2.20;;;;;;;33.48;29.08;99918.22;4346681;33;33967;-78
2022/07/03 11:46:39;;;;;;;2.40;1.73;;;;;;;33.17;31.75;99951.50;4346539;33;34847;-79
2022/07/03 11:49:14;;;;;;;3.42;1.95;;;;;;;33.78;29.38;99947.97;4346625;33;34313;-76
2022/07/03 11:51:43;;;;;;;2.72;1.77;;;;;;;33.23;31.19;99943.50;4346682;33;35032;-78
2022/07/03 11:54:11;;;;;;;2.58;1.80;;;;;;;32.14;31.30;99935.75;4346600;33;34527;-78
2022/07/03 11:56:39;;;;;;;3.22;1.80;;;;;;;31.27;32.27;99930.53;4346082;33;34193;-68